Flight Track Log - Related Links

Times and Time Zones

All times are in EDT time to prevent confusion due to time zone crossing. See the N182PC flight status page for this flight to view local times or setup timezone preferences in your user account.

Time Position Orientation Groundspeed Altitude Reporting Facility
EDT Latitude Longitude Course Direction KTS MPH feet Rate Location/Type
Mon 01:11:14 PM 31.7650 -93.0775 65° Northeast 90 104 1,100  Level Houston Center
Mon 01:12:14 PM 31.7758 -93.0497 65° Northeast 93 107 1,600 432 Climbing Houston Center
Mon 01:13:05 PM 31.7833 -93.0267 69° East 94 108 1,900 393 Climbing Houston Center
Mon 01:13:15 PM 31.7867 -93.0219 50° Northeast 95 109 2,000 484 Climbing Houston Center
Mon 01:14:07 PM 31.7944 -92.9972 70° East 96 110 2,400 500 Climbing Houston Center
Mon 01:14:15 PM 31.7972 -92.9892 68° East 99 114 2,500 476 Climbing Houston Center
Mon 01:15:10 PM 31.8042 -92.9675 69° East 97 112 2,900 492 Climbing Houston Center
Mon 01:15:16 PM 31.8058 -92.9614 72° East 97 112 3,000 484 Climbing Houston Center
Mon 01:16:12 PM 31.8150 -92.9367 66° East 99 114 3,400 492 Climbing Houston Center
Mon 01:16:17 PM 31.8164 -92.9286 79° East 102 117 3,500 581 Climbing Houston Center
Mon 01:17:14 PM 31.8267 -92.9011 66° East 99 114 4,000 500 Climbing Houston Center
Mon 01:17:17 PM 31.8272 -92.9006 40° Northeast 98 113 4,000 469 Level Houston Center
Mon 01:18:18 PM 31.8378 -92.8703 68° East 97 112 4,500 496 Climbing Houston Center
Mon 01:19:18 PM 31.8483 -92.8400 68° East 99 114 5,000 496 Climbing Houston Center
Mon 01:20:19 PM 31.8592 -92.8097 67° East 100 115 5,500 387 Climbing Houston Center
Mon 01:20:20 PM 31.8583 -92.8108 229° Southwest 100 115 5,400 492 Descending Houston Center
Mon 01:21:20 PM 31.8694 -92.7767 69° East 103 119 6,000 581 Climbing Houston Center
Mon 01:21:22 PM 31.8694 -92.7800 270° West 101 116 6,000 469 Level Houston Center
Mon 01:22:24 PM 31.8789 -92.7486 70° East 101 116 6,500 504 Climbing Houston Center
Mon 01:23:21 PM 31.8906 -92.7136 69° East 105 121 7,000 484 Climbing Houston Center
Mon 01:23:26 PM 31.8928 -92.7114 40° Northeast 103 119 7,000 400 Level Houston Center
Mon 01:24:21 PM 31.9011 -92.6831 71° East 105 121 7,400 484 Climbing Houston Center
Mon 01:24:28 PM 31.9039 -92.6772 61° Northeast 108 124 7,500 448 Climbing Houston Center
Mon 01:25:28 PM 31.9133 -92.6478 69° East 105 121 7,900 387 Climbing Houston Center
Mon 01:25:30 PM 31.9139 -92.6461 69° East 105 121 7,900 375 Level Houston Center
Mon 01:26:32 PM 31.9250 -92.6150 67° East 103 119 8,300 339 Climbing Houston Center
Mon 01:27:34 PM 31.9364 -92.5819 68° East 107 123 8,600 293 Climbing Houston Center
Mon 01:28:35 PM 31.9483 -92.5494 67° East 108 124 8,900 146 Climbing Houston Center
Mon 01:29:37 PM 31.9608 -92.5119 69° East 116 133 8,900  Level Houston Center
Mon 01:30:39 PM 31.9789 -92.4606 67° East 135 155 8,900  Level Houston Center
Mon 01:31:41 PM 31.9936 -92.4164 69° East 142 163 8,900  Level Houston Center
Mon 01:32:43 PM 32.0069 -92.3750 69° East 138 159 8,900  Level Houston Center
Mon 01:33:45 PM 32.0222 -92.3319 67° East 140 161 8,900  Level Houston Center
Mon 01:34:47 PM 32.0364 -92.2889 69° East 141 162 8,900  Level Houston Center
Mon 01:35:49 PM 32.0506 -92.2464 69° East 139 160 8,900  Level Houston Center
Mon 01:36:51 PM 32.0675 -92.1947 69° East 141 162 8,900  Level Houston Center
Mon 01:37:53 PM 32.0817 -92.1531 68° East 138 159 8,900  Level Houston Center
Mon 01:38:55 PM 32.0953 -92.1108 69° East 137 158 8,900  Level Houston Center
Mon 01:39:57 PM 32.1097 -92.0692 68° East 137 158 8,900  Level Houston Center
Mon 01:40:59 PM 32.1236 -92.0286 68° East 136 157 8,900  Level Houston Center
Mon 01:42:01 PM 32.1392 -91.9864 66° East 137 158 8,900  Level Houston Center
Mon 01:44:00 PM 32.1636 -91.8990 72° East  Level FlightAware Approximate
Mon 01:48:24 PM 32.2264 -91.7081 72° East 138 159 8,900  Level Memphis Center
Mon 01:49:24 PM 32.2414 -91.6664 67° East 194 223 8,900  Level Memphis Center
Mon 01:50:24 PM 32.2564 -91.6250 67° East 155 178 8,900  Level Memphis Center
Mon 01:51:00 PM 32.2493 -91.5902 72° East  Level FlightAware Approximate
Mon 01:51:24 PM 32.2672 -91.5833 73° East 138 159 8,900  Level Memphis Center
Mon 01:52:00 PM 32.2615 -91.5460 72° East  Level FlightAware Approximate
Mon 01:52:24 PM 32.2844 -91.5392 65° Northeast 138 159 8,900  Level Memphis Center
Mon 01:53:00 PM 32.2737 -91.5018 72° East  Level FlightAware Approximate
Mon 01:53:24 PM 32.2972 -91.4978 70° East 133 153 8,900  Level Memphis Center
Mon 01:54:24 PM 32.3122 -91.4536 68° East 133 153 8,900  Level Memphis Center
Mon 01:55:24 PM 32.3231 -91.4119 73° East 133 153 8,900  Level Memphis Center
Mon 01:56:24 PM 32.3400 -91.3703 64° Northeast 133 153 8,900  Level Memphis Center
Mon 01:57:24 PM 32.3531 -91.3286 70° East 133 153 8,900 50 Level Memphis Center
Mon 01:58:24 PM 32.3700 -91.2847 65° Northeast 133 153 9,000  Climbing Memphis Center
Mon 01:59:24 PM 32.3828 -91.2428 70° East 133 153 8,900 -50 Descending Memphis Center
Mon 02:00:24 PM 32.3978 -91.1989 68° East 133 153 8,900  Level Memphis Center
Mon 02:01:24 PM 32.4128 -91.1547 68° East 133 153 8,900  Level Memphis Center
Mon 02:02:24 PM 32.4256 -91.1128 70° East 133 153 8,900 50 Level Memphis Center
Mon 02:03:24 PM 32.4383 -91.0686 71° East 133 153 9,000  Climbing Memphis Center
Mon 02:04:24 PM 32.4508 -91.0319 68° East 133 153 8,900  Descending Memphis Center
Mon 02:05:24 PM 32.4658 -90.9875 68° East 133 153 9,000 50 Climbing Memphis Center
Mon 02:06:24 PM 32.4806 -90.9458 67° East 133 153 9,000  Level Memphis Center
Mon 02:07:24 PM 32.4956 -90.9017 68° East 133 153 9,000 150 Level Memphis Center
Mon 02:08:24 PM 32.5061 -90.8597 73° East 133 153 9,300 300 Climbing Memphis Center
Mon 02:09:24 PM 32.5186 -90.8206 69° East 133 153 9,600 300 Climbing Memphis Center
Mon 02:10:24 PM 32.5314 -90.7811 69° East 133 153 9,900 350 Climbing Memphis Center
Mon 02:11:24 PM 32.5461 -90.7442 65° Northeast 128 147 10,300 400 Climbing Memphis Center
Mon 02:12:24 PM 32.5567 -90.7047 72° East 128 147 10,700 300 Climbing Memphis Center
Mon 02:13:24 PM 32.5650 -90.6678 75° East 123 142 10,900 -50 Climbing Memphis Center
Mon 02:14:24 PM 32.5797 -90.6283 66° East 118 136 10,600 -400 Descending Memphis Center
Mon 02:15:24 PM 32.5967 -90.5792 68° East 138 159 10,100 -500 Descending Memphis Center
Mon 02:16:24 PM 32.6133 -90.5275 69° East 151 174 9,600 -400 Descending Memphis Center
Mon 02:17:24 PM 32.6300 -90.4781 68° East 156 180 9,300 -600 Descending Memphis Center
Mon 02:18:24 PM 32.6364 -90.4289 81° East 151 174 8,400 -800 Descending Memphis Center
Mon 02:19:24 PM 32.6572 -90.3819 62° Northeast 151 174 7,700 -650 Descending Memphis Center
Mon 02:20:24 PM 32.6739 -90.3400 65° Northeast 151 174 7,100 -400 Descending Memphis Center
Mon 02:21:24 PM 32.6886 -90.2956 69° East 146 168 6,900 -100 Descending Memphis Center
Mon 02:22:24 PM 32.7053 -90.2461 68° East 153 176 6,900  Level Memphis Center
Mon 02:23:24 PM 32.7197 -90.1992 70° East 146 168 6,900  Level Memphis Center
Mon 02:24:24 PM 32.7322 -90.1572 70° East 146 168 6,900  Level Memphis Center
Mon 02:25:24 PM 32.7469 -90.1103 70° East 146 168 6,900  Level Memphis Center
Mon 02:26:24 PM 32.7633 -90.0658 66° East 146 168 6,900  Level Memphis Center
Mon 02:27:24 PM 32.7758 -90.0211 72° East 146 168 6,900  Level Memphis Center
Mon 02:28:24 PM 32.7903 -89.9767 69° East 146 168 6,900  Level Memphis Center
Mon 02:29:24 PM 32.8047 -89.9322 69° East 146 168 6,900  Level Memphis Center
Mon 02:30:24 PM 32.8172 -89.8875 72° East 146 168 6,900  Level Memphis Center
Mon 02:31:24 PM 32.8317 -89.8431 69° East 146 168 6,900  Level Memphis Center
Mon 02:32:24 PM 32.8481 -89.7983 66° East 146 168 6,900  Level Memphis Center
Mon 02:33:24 PM 32.8603 -89.7564 71° East 146 168 6,900  Level Memphis Center
Mon 02:34:24 PM 32.8747 -89.7117 69° East 146 168 6,900  Level Memphis Center
Mon 02:35:24 PM 32.8872 -89.6669 72° East 146 168 6,900  Level Memphis Center
Mon 02:36:24 PM 32.8994 -89.6225 72° East 146 168 6,900  Level Memphis Center
Mon 02:37:24 PM 32.9136 -89.5728 71° East 146 168 6,900  Level Memphis Center
Mon 02:38:24 PM 32.9281 -89.5331 67° East 146 168 6,900  Level Memphis Center
Mon 02:39:24 PM 32.9422 -89.4883 69° East 146 168 6,900  Level Memphis Center
Mon 02:40:24 PM 32.9567 -89.4436 69° East 146 168 6,900  Level Memphis Center
Mon 02:41:24 PM 32.9708 -89.3989 69° East 146 168 6,900  Level Memphis Center
Mon 02:42:24 PM 32.9831 -89.3542 72° East 146 168 6,900  Level Memphis Center
Mon 02:43:24 PM 32.9972 -89.3119 68° East 141 162 6,900  Level Memphis Center
Mon 02:44:24 PM 33.0114 -89.2597 72° East 141 162 6,900  Level Memphis Center
Mon 02:45:24 PM 33.0278 -89.2175 65° Northeast 141 162 6,900  Level Memphis Center
Mon 02:46:24 PM 33.0400 -89.1728 72° East 141 162 6,900  Level Memphis Center
Mon 02:47:24 PM 33.0561 -89.1278 67° East 141 162 6,900  Level Memphis Center
Mon 02:48:24 PM 33.0683 -89.0831 72° East 141 162 6,900  Level Memphis Center
Mon 02:49:24 PM 33.0844 -89.0358 68° East 141 162 6,900  Level Memphis Center
Mon 02:50:24 PM 33.0964 -88.9883 73° East 141 162 6,900  Level Memphis Center
Mon 02:51:24 PM 33.1106 -88.9461 68° East 147 169 6,900 60 Level Memphis Center
Mon 02:52:04 PM 33.1186 -88.9136 74° East 146 168 7,000  Climbing Memphis Center
Mon 02:52:24 PM 33.1247 -88.9011 60° Northeast 147 169 6,900  Descending Memphis Center
Mon 02:52:53 PM 33.1306 -88.8764 74° East 147 169 7,000 71 Climbing Memphis Center
Mon 02:53:48 PM 33.1428 -88.8339 71° East 146 168 7,000 -66 Level Memphis Center
Mon 02:54:24 PM 33.1508 -88.8089 69° East 147 169 6,900  Descending Memphis Center
Mon 02:54:49 PM 33.1567 -88.7889 71° East 147 169 7,000  Climbing Memphis Center
Mon 02:55:24 PM 33.1647 -88.7639 69° East 147 169 6,900  Descending Memphis Center
Mon 02:55:43 PM 33.1686 -88.7467 75° East 147 169 7,000  Climbing Memphis Center
Mon 02:56:24 PM 33.1808 -88.7167 64° Northeast 147 169 6,900  Descending Memphis Center
Mon 02:56:44 PM 33.1828 -88.6967 83° East 148 170 7,000  Climbing Memphis Center
Mon 02:57:24 PM 33.1947 -88.6717 60° Northeast 147 169 6,900  Descending Memphis Center
Mon 02:57:45 PM 33.1989 -88.6542 74° East 145 167 7,000  Climbing Memphis Center
Mon 02:58:24 PM 33.2089 -88.6267 67° East 147 169 6,900  Descending Memphis Center
Mon 02:58:51 PM 33.2128 -88.6067 77° East 145 167 7,000  Climbing Memphis Center
Mon 02:59:24 PM 33.2228 -88.5817 64° Northeast 147 169 6,900  Descending Memphis Center
Mon 02:59:52 PM 33.2286 -88.5567 74° East 148 170 7,000  Climbing Memphis Center
Mon 03:00:24 PM 33.2347 -88.5342 72° East 147 169 6,900  Descending Memphis Center
Mon 03:00:53 PM 33.2406 -88.5094 74° East 149 171 7,000 100 Climbing Memphis Center
Mon 03:01:24 PM 33.2464 -88.4867 73° East 147 169 7,000  Level Memphis Center
Mon 03:01:54 PM 33.2544 -88.4642 67° East 146 168 7,000  Level Memphis Center
Mon 03:02:24 PM 33.2606 -88.4467 67° East 147 169 7,000  Level Memphis Center
Mon 03:02:55 PM 33.2706 -88.4167 68° East 146 168 7,000  Level Memphis Center
Mon 03:03:24 PM 33.2744 -88.4017 73° East 147 169 7,000  Level Memphis Center
Mon 03:03:55 PM 33.2822 -88.3692 74° East 147 169 7,000  Level Memphis Center
Mon 03:04:24 PM 33.2883 -88.3567 60° Northeast 147 169 7,000  Level Memphis Center
Mon 03:04:56 PM 33.2939 -88.3242 78° East 146 168 7,000  Level Memphis Center
Mon 03:05:24 PM 33.3000 -88.3092 64° Northeast 147 169 7,000  Level Memphis Center
Mon 03:05:57 PM 33.3100 -88.2817 66° East 147 169 7,000  Level Memphis Center
Mon 03:06:24 PM 33.3181 -88.2639 62° Northeast 147 169 7,000  Level Memphis Center
Mon 03:06:52 PM 33.3239 -88.2342 77° East 148 170 7,000  Level Memphis Center
Mon 03:07:24 PM 33.3319 -88.2189 58° Northeast 141 162 7,000  Level Memphis Center
Mon 03:07:53 PM 33.3356 -88.1889 82° East 146 168 7,000  Level Memphis Center
Mon 03:08:24 PM 33.3414 -88.1642 74° East 146 168 7,000  Level Memphis Center
Mon 03:08:53 PM 33.3494 -88.1439 65° Northeast 144 166 7,000  Level Memphis Center
Mon 03:09:24 PM 33.3553 -88.1214 73° East 146 168 7,000  Level Memphis Center
Mon 03:09:54 PM 33.3633 -88.1014 64° Northeast 143 165 7,000  Level Memphis Center
Mon 03:10:24 PM 33.3689 -88.0739 76° East 146 168 7,000  Level Memphis Center
Mon 03:10:55 PM 33.3769 -88.0511 67° East 145 167 7,000  Level Memphis Center
Mon 03:11:24 PM 33.3828 -88.0311 71° East 146 168 7,000  Level Memphis Center
Mon 03:11:56 PM 33.3906 -88.0036 71° East 147 169 7,000  Level Memphis Center
Mon 03:12:24 PM 33.3964 -87.9836 71° East 146 168 7,000  Level Memphis Center
Mon 03:12:57 PM 33.4044 -87.9583 69° East 147 169 7,000  Level Memphis Center
Mon 03:13:24 PM 33.4103 -87.9358 73° East 146 168 7,000  Level Memphis Center
Mon 03:13:57 PM 33.4158 -87.9083 76° East 147 169 7,000  Level Memphis Center
Mon 03:14:24 PM 33.4219 -87.8908 67° East 146 168 7,000  Level Memphis Center
Mon 03:14:58 PM 33.4317 -87.8656 65° Northeast 146 168 7,000  Level Memphis Center
Mon 03:15:24 PM 33.4356 -87.8456 77° East 146 168 7,000  Level Memphis Center
Mon 03:16:24 PM 33.4492 -87.8003 70° East 146 168 7,000  Level Memphis Center
Mon 03:17:24 PM 33.4628 -87.7500 72° East 146 168 7,000  Level Memphis Center
Mon 03:18:24 PM 33.4764 -87.7050 70° East 146 168 7,000  Level Memphis Center
Mon 03:19:24 PM 33.4900 -87.6572 71° East 146 168 7,000  Level Memphis Center
Mon 03:20:24 PM 33.5036 -87.6144 69° East 141 162 7,000  Level Memphis Center
Mon 03:21:58 PM 33.5231 -87.5422 72° East 147 169 7,000  Level Atlanta Center
Mon 03:22:53 PM 33.5328 -87.5003 74° East 145 167 7,000  Level Atlanta Center
Mon 03:23:53 PM 33.5486 -87.4561 67° East 146 168 7,000  Level Atlanta Center
Mon 03:24:54 PM 33.5603 -87.4092 73° East 147 169 7,000  Level Atlanta Center
Mon 03:25:54 PM 33.5742 -87.3647 69° East 147 169 7,000  Level Atlanta Center
Mon 03:26:55 PM 33.5878 -87.3181 71° East 145 167 7,000  Level Atlanta Center
Mon 03:27:50 PM 33.5994 -87.2761 72° East 141 162 7,000  Level Atlanta Center
Mon 03:28:50 PM 33.6131 -87.2317 70° East 142 163 7,000  Level Atlanta Center
Mon 03:29:51 PM 33.6267 -87.1872 70° East 146 168 7,000  Level Atlanta Center
Mon 03:30:51 PM 33.6406 -87.1378 71° East 147 169 7,000  Level Atlanta Center
Mon 03:31:52 PM 33.6522 -87.0908 73° East 144 166 7,000  Level Atlanta Center
Mon 03:32:53 PM 33.6678 -87.0439 68° East 144 166 7,000  Level Atlanta Center
Mon 03:33:53 PM 33.6794 -86.9969 73° East 147 169 7,000  Level Atlanta Center
Mon 03:34:54 PM 33.6908 -86.9550 72° East 147 169 7,000  Level Atlanta Center
Mon 03:35:55 PM 33.7044 -86.9081 71° East 144 166 7,000  Level Atlanta Center
Mon 03:36:55 PM 33.7181 -86.8633 70° East 141 162 7,000  Level Atlanta Center
Mon 03:37:56 PM 33.7294 -86.8189 73° East 140 161 7,000  Level Atlanta Center
Mon 03:39:02 PM 33.7431 -86.7667 73° East 138 159 7,000  Level Atlanta Center
Mon 03:40:03 PM 33.7567 -86.7247 69° East 137 158 7,000  Level Atlanta Center
Mon 03:41:04 PM 33.7681 -86.6800 73° East 137 158 7,000  Level Atlanta Center
Mon 03:42:04 PM 33.7794 -86.6381 72° East 137 158 7,000  Level Atlanta Center
Mon 03:43:05 PM 33.7928 -86.5933 70° East 136 157 7,000  Level Atlanta Center
Mon 03:44:19 PM 33.8106 -86.5389 69° East 147 169 7,000  Level Atlanta Center
Mon 03:45:19 PM 33.8219 -86.4942 73° East 147 169 7,000  Level Atlanta Center
Mon 03:46:19 PM 33.8333 -86.4497 73° East 142 163 7,000  Level Atlanta Center
Mon 03:47:19 PM 33.8467 -86.4025 71° East 142 163 7,000  Level Atlanta Center
Mon 03:48:19 PM 33.8600 -86.3603 69° East 142 163 7,000  Level Atlanta Center
Mon 03:49:19 PM 33.8714 -86.3131 74° East 142 163 7,000  Level Atlanta Center
Mon 03:50:19 PM 33.8847 -86.2683 70° East 147 169 7,000  Level Atlanta Center
Mon 03:51:19 PM 33.9003 -86.2211 68° East 147 169 7,000  Level Atlanta Center
Mon 03:52:19 PM 33.9133 -86.1764 71° East 147 169 7,000  Level Atlanta Center
Mon 03:53:19 PM 33.9225 -86.1292 77° East 147 169 7,000  Level Atlanta Center
Mon 03:54:19 PM 33.9358 -86.0844 70° East 142 163 7,000  Level Atlanta Center
Mon 03:55:19 PM 33.9469 -86.0397 73° East 147 169 7,000  Level Atlanta Center
Mon 03:56:19 PM 33.9603 -85.9922 71° East 147 169 7,000  Level Atlanta Center
Mon 03:57:19 PM 33.9736 -85.9475 70° East 147 169 7,000  Level Atlanta Center
Mon 03:58:19 PM 33.9847 -85.9028 73° East 147 169 7,000  Level Atlanta Center
Mon 03:59:19 PM 33.9981 -85.8553 71° East 147 169 7,000  Level Atlanta Center
Mon 04:00:19 PM 34.0111 -85.8131 70° East 147 169 7,000  Level Atlanta Center
Mon 04:01:19 PM 34.0264 -85.7708 66° East 147 169 7,000  Level Atlanta Center
Mon 04:02:19 PM 34.0372 -85.7258 74° East 147 169 7,000  Level Atlanta Center
Mon 04:03:19 PM 34.0506 -85.6811 70° East 147 169 7,000  Level Atlanta Center
Mon 04:04:19 PM 34.0636 -85.6311 72° East 147 169 7,000  Level Atlanta Center
Mon 04:05:19 PM 34.0747 -85.5861 73° East 147 169 7,000  Level Atlanta Center
Mon 04:06:19 PM 34.0878 -85.5386 72° East 147 169 7,000  Level Atlanta Center
Mon 04:07:19 PM 34.0967 -85.4964 76° East 147 169 7,000  Level Atlanta Center
Mon 04:08:19 PM 34.1097 -85.4489 72° East 147 169 7,000  Level Atlanta Center
Mon 04:09:19 PM 34.1228 -85.4014 72° East 147 169 7,000  Level Atlanta Center
Mon 04:10:19 PM 34.1336 -85.3564 74° East 147 169 7,000  Level Atlanta Center
Mon 04:11:19 PM 34.1467 -85.3114 71° East 142 163 7,000  Level Atlanta Center
Mon 04:12:19 PM 34.1556 -85.2689 76° East 142 163 7,000  Level Atlanta Center
Mon 04:13:19 PM 34.1683 -85.2264 70° East 142 163 7,000  Level Atlanta Center
Mon 04:14:19 PM 34.1814 -85.1814 71° East 147 169 7,000  Level Atlanta Center
Mon 04:15:19 PM 34.1942 -85.1364 71° East 141 162 7,000  Level Atlanta Center
Mon 04:16:19 PM 34.2072 -85.0914 71° East 141 162 7,000  Level Atlanta Center
Mon 04:17:19 PM 34.2222 -85.0486 67° East 146 168 7,000  Level Atlanta Center
Mon 04:18:19 PM 34.2414 -85.0089 60° Northeast 140 161 7,000  Level Atlanta Center
Mon 04:19:19 PM 34.2625 -84.9636 61° Northeast 140 161 7,000  Level Atlanta Center
Mon 04:20:19 PM 34.2836 -84.9236 57° Northeast 134 154 7,000  Level Atlanta Center
Mon 04:21:19 PM 34.3028 -84.8811 61° Northeast 139 160 7,000  Level Atlanta Center
Mon 04:22:19 PM 34.3217 -84.8411 60° Northeast 139 160 7,000  Level Atlanta Center
Mon 04:23:19 PM 34.3408 -84.7986 61° Northeast 139 160 7,000  Level Atlanta Center
Mon 04:24:19 PM 34.3597 -84.7608 59° Northeast 139 160 7,000  Level Atlanta Center
Mon 04:25:19 PM 34.3767 -84.7183 64° Northeast 139 160 7,000  Level Atlanta Center
Mon 04:26:19 PM 34.3936 -84.6756 64° Northeast 139 160 7,000  Level Atlanta Center
Mon 04:27:19 PM 34.4003 -84.6331 79° East 133 153 7,000  Level Atlanta Center
Mon 04:28:19 PM 34.4086 -84.5878 77° East 133 153 7,000  Level Atlanta Center
Mon 04:29:19 PM 34.4194 -84.5400 75° East 133 153 7,000  Level Atlanta Center
Mon 04:30:19 PM 34.4278 -84.4919 78° East 138 159 7,000  Level Atlanta Center
Mon 04:31:19 PM 34.4406 -84.4469 71° East 143 165 7,000  Level Atlanta Center
Mon 04:32:19 PM 34.4511 -84.3939 76° East 143 165 7,000  Level Atlanta Center
Mon 04:33:19 PM 34.4617 -84.3486 74° East 143 165 7,000  Level Atlanta Center
Mon 04:34:19 PM 34.4703 -84.3008 78° East 143 165 7,000  Level Atlanta Center
Mon 04:35:19 PM 34.4808 -84.2531 75° East 138 159 7,000  Level Atlanta Center
Mon 04:36:19 PM 34.4911 -84.2078 75° East 138 159 7,000  Level Atlanta Center
Mon 04:37:19 PM 34.5017 -84.1622 74° East 138 159 7,000  Level Atlanta Center
Mon 04:38:19 PM 34.5122 -84.1169 74° East 138 159 7,000  Level Atlanta Center
Mon 04:39:19 PM 34.5206 -84.0717 77° East 144 166 7,000  Level Atlanta Center
Mon 04:40:19 PM 34.5311 -84.0236 75° East 144 166 7,000  Level Atlanta Center
Mon 04:41:19 PM 34.5394 -83.9833 76° East 144 166 7,000  Level Atlanta Center
Mon 04:42:19 PM 34.5497 -83.9378 75° East 144 166 7,000  Level Atlanta Center
Mon 04:43:19 PM 34.5600 -83.8925 75° East 144 166 7,000  Level Atlanta Center
Mon 04:44:19 PM 34.5683 -83.8469 77° East 138 159 7,000  Level Atlanta Center
Mon 04:45:19 PM 34.5789 -83.8042 73° East 138 159 7,000  Level Atlanta Center
Mon 04:46:19 PM 34.5869 -83.7586 78° East 138 159 7,000  Level Atlanta Center
Mon 04:47:19 PM 34.5994 -83.7108 72° East 132 152 7,000  Level Atlanta Center
Mon 04:48:19 PM 34.6078 -83.6678 77° East 132 152 7,000  Level Atlanta Center
Mon 04:49:19 PM 34.6181 -83.6197 75° East 132 152 7,000  Level Atlanta Center
Mon 04:50:19 PM 34.6283 -83.5744 75° East 137 158 7,000  Level Atlanta Center
Mon 04:51:19 PM 34.6342 -83.5364 79° East 137 158 7,000  Level Atlanta Center
Mon 04:52:19 PM 34.6425 -83.4883 78° East 137 158 7,000  Level Atlanta Center
Mon 04:53:19 PM 34.6547 -83.4453 71° East 137 158 7,000  Level Atlanta Center
Mon 04:54:19 PM 34.6628 -83.3972 78° East 137 158 7,000  Level Atlanta Center
Mon 04:55:19 PM 34.6731 -83.3569 73° East 137 158 7,000 -50 Level Atlanta Center
Mon 04:56:19 PM 34.6811 -83.3086 79° East 137 158 6,900 -200 Descending Atlanta Center
Mon 04:57:19 PM 34.6892 -83.2683 76° East 132 152 6,600 -500 Descending Atlanta Center
Mon 04:58:19 PM 34.7036 -83.2175 71° East 132 152 5,900 -750 Descending Atlanta Center
Mon 04:59:19 PM 34.7094 -83.1772 80° East 132 152 5,100 -500 Descending Atlanta Center
Mon 05:00:19 PM 34.7217 -83.1289 73° East 132 152 4,900 -100 Descending Atlanta Center
Mon 05:01:19 PM 34.7131 -83.0836 103° East 132 152 4,900  Level Atlanta Center
Mon 05:02:19 PM 34.7064 -83.0356 100° East 132 152 4,900  Level Atlanta Center
Mon 05:03:19 PM 34.6997 -82.9903 100° East 132 152 4,900  Level Atlanta Center
Mon 05:04:19 PM 34.6931 -82.9450 100° East 137 158 4,900 -350 Level Atlanta Center
Mon 05:05:19 PM 34.6883 -82.8969 97° East 142 163 4,200 -800 Descending Atlanta Center
Mon 05:06:19 PM 34.6817 -82.8517 100° East 142 163 3,300 -750 Descending Atlanta Center
Mon 05:07:19 PM 34.6897 -82.8086 77° East 127 146 2,700 -600 Descending Atlanta Center
Mon 05:10:00 PM 34.7461 -82.7701 29° Northeast  Level FlightAware Approximate
Mon 05:17:00 PM 34.8000 -82.7000 90° East  Level FlightAware Approximate
Mon 05:18:00 PM 34.8100 -82.7029 90° East  Level Estimated

Login

Don't have an account? Register now (free) for customized features, flight alerts, and more!